createdAt,value
2018-06-16T00:01:14.524Z,18.30
2018-06-16T00:06:05.424Z,18.20
2018-06-16T00:10:57.074Z,18.20
2018-06-16T00:15:48.016Z,18.20
2018-06-16T00:20:38.912Z,18.20
2018-06-16T00:25:29.805Z,18.10
2018-06-16T00:30:21.431Z,18.10
2018-06-16T00:35:12.311Z,18.10
2018-06-16T00:40:03.212Z,18.10
2018-06-16T00:44:54.112Z,18.00
2018-06-16T00:49:45.767Z,18.00
2018-06-16T00:54:36.660Z,17.90
2018-06-16T00:59:28.292Z,17.90
2018-06-16T01:04:20.055Z,17.90
2018-06-16T01:09:10.948Z,17.90
2018-06-16T01:14:02.611Z,17.90
2018-06-16T01:18:53.945Z,17.90
2018-06-16T01:23:44.885Z,17.90
2018-06-16T01:28:35.770Z,17.90
2018-06-16T01:33:26.664Z,17.90
2018-06-16T01:38:18.335Z,17.90
2018-06-16T01:43:09.236Z,17.80
2018-06-16T01:48:00.149Z,17.80
2018-06-16T01:52:51.780Z,17.80
2018-06-16T01:57:43.416Z,17.80
2018-06-16T02:02:35.050Z,17.80
2018-06-16T02:07:26.687Z,17.70
2018-06-16T02:12:18.328Z,17.70
2018-06-16T02:17:09.232Z,17.70
2018-06-16T02:22:00.883Z,17.60
2018-06-16T02:26:51.805Z,17.60
2018-06-16T02:31:42.705Z,17.60
2018-06-16T02:36:34.353Z,17.60
2018-06-16T02:41:25.271Z,17.60
2018-06-16T02:46:16.926Z,17.50
2018-06-16T02:51:07.820Z,17.50
2018-06-16T02:55:59.473Z,17.50
2018-06-16T03:00:50.389Z,17.50
2018-06-16T03:05:41.301Z,17.50
2018-06-16T03:10:32.197Z,17.40
2018-06-16T03:15:23.845Z,17.40
2018-06-16T03:20:15.481Z,17.40
2018-06-16T03:25:07.123Z,17.40
2018-06-16T03:29:58.770Z,17.40
2018-06-16T03:34:49.668Z,17.40
2018-06-16T03:39:41.325Z,17.40
2018-06-16T03:44:32.228Z,17.40
2018-06-16T03:49:23.124Z,17.40
2018-06-16T03:54:14.819Z,17.50
2018-06-16T03:59:05.707Z,17.40
2018-06-16T04:03:56.615Z,17.50
2018-06-16T04:08:48.247Z,17.50
2018-06-16T04:13:39.906Z,17.60
2018-06-16T04:18:30.792Z,17.60
2018-06-16T04:23:22.432Z,17.70
2018-06-16T04:28:14.075Z,17.80
2018-06-16T04:33:05.711Z,17.80
2018-06-16T04:37:57.344Z,17.90
2018-06-16T04:42:49.006Z,17.90
2018-06-16T04:47:46.924Z,17.90
2018-06-16T04:52:37.811Z,18.00
2018-06-16T04:57:28.757Z,18.10
2018-06-16T05:02:19.657Z,18.10
2018-06-16T05:07:10.566Z,18.20
2018-06-16T05:12:01.499Z,18.30
2018-06-16T05:16:52.450Z,18.40
2018-06-16T05:21:43.318Z,18.50
2018-06-16T05:26:34.213Z,18.60
2018-06-16T05:31:25.849Z,18.90
2018-06-16T05:36:16.765Z,18.90
2018-06-16T05:41:08.446Z,19.10
2018-06-16T05:45:59.372Z,19.10
2018-06-16T05:50:50.269Z,19.30
2018-06-16T05:55:41.155Z,19.40
2018-06-16T06:00:32.844Z,19.70
2018-06-16T06:05:23.737Z,19.70
2018-06-16T06:10:14.642Z,19.80
2018-06-16T06:15:05.558Z,19.90
2018-06-16T06:19:56.485Z,20.10
2018-06-16T06:24:47.396Z,20.30
2018-06-16T06:29:38.278Z,20.40
2018-06-16T06:34:29.182Z,20.50
2018-06-16T06:39:20.073Z,20.70
2018-06-16T06:44:10.956Z,20.80
2018-06-16T06:49:02.612Z,21.00
2018-06-16T06:53:53.502Z,20.90
2018-06-16T06:58:45.196Z,21.20
2018-06-16T07:03:36.115Z,21.20
2018-06-16T07:08:27.003Z,21.30
2018-06-16T07:13:17.920Z,21.50
2018-06-16T07:18:08.796Z,21.60
2018-06-16T07:22:59.809Z,21.80
2018-06-16T07:27:51.473Z,22.20
2018-06-16T07:32:43.116Z,22.40
2018-06-16T07:37:34.049Z,22.40
2018-06-16T07:42:24.936Z,22.60
2018-06-16T07:47:16.574Z,23.10
2018-06-16T07:52:08.196Z,23.20
2018-06-16T07:56:59.084Z,23.20
2018-06-16T08:01:49.997Z,23.40
2018-06-16T08:06:40.919Z,23.60
2018-06-16T08:11:31.811Z,23.70
2018-06-16T08:16:22.737Z,23.80
2018-06-16T08:21:13.657Z,23.90
2018-06-16T08:26:04.564Z,24.00
2018-06-16T08:30:55.463Z,24.20
2018-06-16T08:35:47.122Z,24.50
2018-06-16T08:40:38.140Z,24.50
2018-06-16T08:45:29.049Z,24.60
2018-06-16T08:50:19.955Z,24.80
2018-06-16T08:55:11.594Z,25.10
2018-06-16T09:00:03.242Z,25.30
2018-06-16T09:04:54.433Z,25.20
2018-06-16T09:09:45.440Z,25.50
2018-06-16T09:14:36.364Z,25.60
2018-06-16T09:19:27.262Z,25.70
2018-06-16T09:24:18.177Z,25.80
2018-06-16T09:29:09.077Z,26.00
2018-06-16T09:33:59.986Z,26.10
2018-06-16T09:38:50.908Z,26.30
2018-06-16T09:43:41.816Z,26.50
2018-06-16T09:48:32.703Z,26.70
2018-06-16T09:53:23.700Z,26.80
2018-06-16T09:58:14.621Z,26.90
2018-06-16T10:03:05.517Z,27.10
2018-06-16T10:07:56.421Z,27.20
2018-06-16T10:12:47.338Z,27.30
2018-06-16T10:17:38.255Z,27.30
2018-06-16T10:22:29.143Z,27.40
2018-06-16T10:27:20.784Z,27.20
2018-06-16T10:32:12.425Z,27.20
2018-06-16T10:37:04.203Z,27.20
2018-06-16T10:41:55.108Z,27.20
2018-06-16T10:46:46.013Z,27.20
2018-06-16T10:51:36.912Z,27.20
2018-06-16T10:56:28.540Z,27.40
2018-06-16T11:01:19.438Z,27.40
2018-06-16T11:06:10.335Z,27.60
2018-06-16T11:11:01.219Z,27.80
2018-06-16T11:15:52.120Z,28.00
2018-06-16T11:20:43.743Z,28.30
2018-06-16T11:25:34.641Z,28.20
2018-06-16T11:30:25.536Z,28.40
2018-06-16T11:35:16.437Z,28.60
2018-06-16T11:40:07.338Z,28.70
2018-06-16T11:44:58.233Z,28.80
2018-06-16T11:49:49.120Z,28.90
2018-06-16T11:54:40.095Z,28.90
2018-06-16T11:59:30.984Z,28.90
2018-06-16T12:04:22.621Z,28.80
2018-06-16T12:09:14.268Z,28.70
2018-06-16T12:14:05.910Z,28.60
2018-06-16T12:18:57.542Z,28.60
2018-06-16T12:23:49.201Z,28.70
2018-06-16T12:28:40.096Z,28.70
2018-06-16T12:33:31.755Z,29.10
2018-06-16T12:38:22.706Z,29.00
2018-06-16T12:43:13.780Z,29.30
2018-06-16T12:48:05.416Z,29.60
2018-06-16T12:52:56.361Z,29.60
2018-06-16T12:57:47.269Z,29.70
2018-06-16T13:02:38.174Z,29.80
2018-06-16T13:07:29.084Z,29.90
2018-06-16T13:12:20.728Z,30.00
2018-06-16T13:17:11.640Z,29.90
2018-06-16T13:22:03.276Z,30.10
2018-06-16T13:26:54.914Z,30.30
2018-06-16T13:31:45.821Z,30.20
2018-06-16T13:36:37.447Z,30.50
2018-06-16T13:41:28.348Z,30.40
2018-06-16T13:46:19.245Z,30.40
2018-06-16T13:51:10.146Z,30.50
2018-06-16T13:56:01.046Z,30.60
2018-06-16T14:00:51.936Z,30.70
2018-06-16T14:05:42.837Z,30.90
2018-06-16T14:10:33.714Z,31.10
2018-06-16T14:15:24.681Z,31.40
2018-06-16T14:20:16.327Z,31.70
2018-06-16T14:25:08.006Z,31.90
2018-06-16T14:29:58.968Z,31.80
2018-06-16T14:34:50.191Z,31.90
2018-06-16T14:39:41.104Z,31.90
2018-06-16T14:44:32.001Z,31.70
2018-06-16T14:49:22.899Z,31.60
2018-06-16T14:54:13.787Z,31.40
2018-06-16T14:59:05.433Z,31.10
2018-06-16T15:03:57.064Z,31.00
2018-06-16T15:08:48.692Z,30.90
2018-06-16T15:13:40.369Z,30.80
2018-06-16T15:18:31.260Z,30.70
2018-06-16T15:23:22.894Z,30.40
2018-06-16T15:28:14.588Z,30.20
2018-06-16T15:33:05.476Z,30.20
2018-06-16T15:37:56.386Z,30.10
2018-06-16T15:42:47.284Z,30.00
2018-06-16T15:47:38.932Z,29.90
2018-06-16T15:52:29.880Z,29.90
2018-06-16T15:57:20.770Z,29.90
2018-06-16T16:02:11.751Z,29.80
2018-06-16T16:07:02.757Z,29.70
2018-06-16T16:11:53.655Z,29.60
2018-06-16T16:16:44.589Z,29.40
2018-06-16T16:21:35.498Z,29.20
2018-06-16T16:26:26.391Z,29.00
2018-06-16T16:31:17.301Z,28.90
2018-06-16T16:36:08.308Z,28.70
2018-06-16T16:40:59.953Z,28.50
2018-06-16T16:45:50.932Z,28.40
2018-06-16T16:50:42.590Z,28.20
2018-06-16T16:55:34.297Z,28.10
2018-06-16T17:00:25.263Z,28.10
2018-06-16T17:05:16.122Z,28.00
2018-06-16T17:10:07.065Z,27.90
2018-06-16T17:14:58.075Z,27.70
2018-06-16T17:19:48.989Z,27.70
2018-06-16T17:24:39.886Z,27.50
2018-06-16T17:29:30.841Z,27.40
2018-06-16T17:34:21.735Z,27.30
2018-06-16T17:39:12.636Z,27.20
2018-06-16T17:44:03.581Z,27.10
2018-06-16T17:48:54.536Z,27.00
2018-06-16T17:53:46.172Z,26.70
2018-06-16T17:58:37.862Z,26.60
2018-06-16T18:03:28.764Z,26.60
2018-06-16T18:08:19.670Z,26.50
2018-06-16T18:13:10.634Z,26.30
2018-06-16T18:18:01.557Z,26.20
2018-06-16T18:22:54.113Z,25.90
2018-06-16T18:27:45.037Z,25.90
2018-06-16T18:32:35.936Z,25.80
2018-06-16T18:37:26.837Z,25.70
2018-06-16T18:42:17.731Z,25.50
2018-06-16T18:47:08.624Z,25.40
2018-06-16T18:51:59.512Z,25.20
2018-06-16T18:56:50.428Z,25.10
2018-06-16T19:01:41.358Z,25.00
2018-06-16T19:06:32.392Z,24.90
2018-06-16T19:11:24.153Z,24.70
2018-06-16T19:16:15.788Z,24.50
2018-06-16T19:21:07.472Z,24.40
2018-06-16T19:25:58.406Z,24.40
2018-06-16T19:30:49.419Z,24.30
2018-06-16T19:35:40.396Z,24.20
2018-06-16T19:40:31.301Z,24.10
2018-06-16T19:45:23.077Z,23.80
2018-06-16T19:50:14.035Z,23.70
2018-06-16T19:55:04.959Z,23.70
2018-06-16T19:59:55.960Z,23.50
2018-06-16T20:04:46.949Z,23.40
2018-06-16T20:09:37.852Z,23.30
2018-06-16T20:14:28.760Z,23.10
2018-06-16T20:19:20.412Z,22.80
2018-06-16T20:24:11.374Z,22.80
2018-06-16T20:29:02.293Z,22.70
2018-06-16T20:33:53.295Z,22.50
2018-06-16T20:38:44.232Z,22.40
2018-06-16T20:43:35.157Z,22.20
2018-06-16T20:48:26.075Z,22.00
2018-06-16T20:53:16.962Z,21.90
2018-06-16T20:58:07.904Z,21.70
2018-06-16T21:02:59.444Z,21.50
2018-06-16T21:07:52.459Z,21.20
2018-06-16T21:12:43.376Z,21.20
2018-06-16T21:17:34.345Z,21.10
2018-06-16T21:22:25.251Z,21.00
2018-06-16T21:27:16.172Z,20.80
2018-06-16T21:32:07.113Z,20.70
2018-06-16T21:36:58.012Z,20.60
2018-06-16T21:41:49.664Z,20.30
2018-06-16T21:46:40.667Z,20.40
2018-06-16T21:51:31.570Z,20.30
2018-06-16T21:56:22.530Z,20.20
2018-06-16T22:01:13.441Z,20.10
2018-06-16T22:06:04.336Z,20.00
2018-06-16T22:10:55.263Z,19.90
2018-06-16T22:15:46.171Z,19.90
2018-06-16T22:20:37.062Z,19.80
2018-06-16T22:25:28.033Z,19.70
2018-06-16T22:30:21.939Z,19.60
2018-06-16T22:35:12.868Z,19.60
2018-06-16T22:40:04.536Z,19.50
2018-06-16T22:44:55.439Z,19.50
2018-06-16T22:49:46.390Z,19.50
2018-06-16T22:54:37.318Z,19.40
2018-06-16T22:59:28.228Z,19.40
2018-06-16T23:04:19.108Z,19.40
2018-06-16T23:09:10.069Z,19.30
2018-06-16T23:14:00.979Z,19.30
2018-06-16T23:18:51.876Z,19.20
2018-06-16T23:23:42.819Z,19.20
2018-06-16T23:28:33.719Z,19.10
2018-06-16T23:33:24.633Z,19.10
2018-06-16T23:38:15.568Z,19.00
2018-06-16T23:43:06.494Z,19.00
2018-06-16T23:47:57.396Z,18.90
2018-06-16T23:52:48.310Z,18.80
2018-06-16T23:57:39.204Z,18.80
